Portada
METAR-TAF:

METAR-TAF

Aeroports :

Tokushima, Japó

latitud: 34-08N, longitud: 134-37E, altitud: 8 m

Observació

L'informe es va fer fa 33 minuts, a les 10:00 UTC
Vent 10 kt del Est
Temperatura 25°C
Humitat 65%
Pressió 1013 hPa
Visibilitat 10 km o més
Escasses núvols a una alçada de 3000 ft
Núvols disperses a una alçada de 4500 ft
Cel cobert a una alçada de 8000 ft

METAR: RJOS 221000Z 09010KT 9999 FEW030 SCT045 OVC080 25/18 Q1013

Hora: 19:33 (10:33 UTC)


TAF: manca

Observacions i pronòstics meteorològics de més de 4000 aeroports (METAR i TAF).

Les estacions disponibles són els punts grocs i vermells al mapa.

Posi el ratolí al punt desitjat per veure el nom de l'estació.

Feu clic per veure les observacions i els pronòstics meteorològics.

Per canviar el mapa: feu clic els botons verds amb una creu de color negre per apropar; al botó verd amb un guió per allunyar la imatge; o en les fletxes verdes per a mapes adjacents.


METAR-TAF: